PATL/TLJ METAR and TAF weather

Enter ICAO airport designator
Station Type Date Time Source
PATL METAR 2019/06/03 22:55 UTC NOAA

PATL 032255Z AUTO VRB05KT 10SM -TSRA FEW011 BKN038 BKN075 12/08 A2990 RMK AO2 SHRAB2236E2237 SLP127 P0000 T01190081


Station Type Date Time Source
PATL Decoded METAR 2019/06/03 22:55 UTC NOAA

Takotna, Tatalina LRRS Airport, AK, United States (PATL) 62-54N 155-59W
Jun 03, 2019 - 06:55 PM EDT / 2019.06.03 2255 UTC
Wind: Variable at 6 MPH (5 KT):0
Visibility: 10 mile(s):0
Sky conditions: mostly cloudy
Weather: light rain with thunder
Precipitation last hour: A trace
Temperature: 53.4 F (11.9 C)
Dew Point: 46.6 F (8.1 C)
Relative Humidity: 77%
Pressure (altimeter): 29.9 in. Hg (1012 hPa)
ob: PATL 032255Z AUTO VRB05KT 10SM -TSRA FEW011 BKN038 BKN075 12/08 A2990 RMK AO2 SHRAB2236E2237 SLP127 P0000 T01190081
cycle: 23

Station Type Date Time Source
PATL TAF 2012/01/12 14:06 UTC NOAA

TAF PATL 1214/1320 VRB06KT 9999 FEW050 SCT110 QNH2998INS TM26/1300Z TM32/1315Z

Example: see airport list